Time;durP1;ratioP1;P1;durP2;ratioP2;P2;SDS_P1;SDS_P2;PMS_P1;PMS_P2;Temp;Humidity;BMP_temperature;BMP_pressure;BME280_temperature;BME280_humidity;BME280_pressure;Samples;Min_cycle;Max_cycle;Signal;HPM_P1;HPM_P2
2022/01/04 00:01:57;;;;;;;3.13;0.70;;;9.60;95.60;;;;;;5052185;28;20518;-72
2022/01/04 00:04:23;;;;;;;1.38;0.60;;;9.70;95.40;;;;;;5051058;28;20201;-73
2022/01/04 00:06:49;;;;;;;3.58;0.90;;;9.70;94.90;;;;;;5054851;28;20126;-72
2022/01/04 00:09:15;;;;;;;1.40;0.90;;;9.70;94.90;;;;;;5042782;28;20714;-72
2022/01/04 00:13:20;;;;;;;1.20;0.57;;;9.80;94.60;;;;;;5042606;28;20017;-72
2022/01/04 00:14:26;;;;;;;0.98;0.52;;;9.80;93.50;;;;;;5040881;28;20485;-72
2022/01/04 00:16:55;;;;;;;1.47;0.50;;;9.90;93.00;;;;;;5043499;28;20056;-73
2022/01/04 00:19:22;;;;;;;0.90;0.50;;;9.90;93.10;;;;;;5046504;28;20024;-71
2022/01/04 00:21:47;;;;;;;1.25;0.40;;;10.00;93.20;;;;;;5050157;28;20715;-72
2022/01/04 00:24:13;;;;;;;1.90;0.53;;;10.00;93.10;;;;;;5049341;28;20040;-72
2022/01/04 00:26:39;;;;;;;0.50;0.50;;;10.10;92.80;;;;;;5052907;28;20020;-72
2022/01/04 00:29:04;;;;;;;0.87;0.70;;;10.10;93.20;;;;;;5056832;28;20032;-72
2022/01/04 00:31:30;;;;;;;1.20;0.47;;;10.20;93.30;;;;;;5050434;28;20028;-72
2022/01/04 00:33:56;;;;;;;1.07;0.40;;;10.20;93.90;;;;;;5047338;28;20032;-72
2022/01/04 00:36:22;;;;;;;2.47;0.60;;;10.20;93.70;;;;;;5043561;28;20031;-72
2022/01/04 00:38:48;;;;;;;0.73;0.55;;;10.20;93.60;;;;;;5054782;28;20597;-72
2022/01/04 00:41:16;;;;;;;0.57;0.50;;;10.20;93.90;;;;;;5057630;28;20025;-72
2022/01/04 00:43:45;;;;;;;3.00;0.50;;;10.20;94.20;;;;;;5045258;28;20509;-72
2022/01/04 00:46:16;;;;;;;1.90;0.75;;;10.20;95.20;;;;;;5050323;28;20029;-72
2022/01/04 00:51:30;;;;;;;1.52;0.55;;;10.10;94.50;;;;;;5043715;28;20386;-72
2022/01/04 00:53:59;;;;;;;0.43;0.20;;;10.00;93.80;;;;;;5049486;28;20051;-72
2022/01/04 00:56:24;;;;;;;0.38;0.38;;;10.00;93.30;;;;;;5058520;28;20029;-72
2022/01/04 00:58:50;;;;;;;1.03;0.50;;;10.10;93.10;;;;;;5050510;28;20028;-72
2022/01/04 01:01:16;;;;;;;0.70;0.30;;;10.10;93.70;;;;;;5047394;28;20025;-72
2022/01/04 01:03:43;;;;;;;1.30;0.35;;;10.20;93.00;;;;;;5048667;28;20020;-72
2022/01/04 01:06:10;;;;;;;;;;;10.20;92.40;;;;;;5038828;28;20025;-71
2022/01/04 01:08:36;;;;;;;2.35;0.45;;;10.30;93.00;;;;;;5042231;28;19909;-72
2022/01/04 01:11:04;;;;;;;;;;;10.30;92.10;;;;;;5040701;28;20063;-72
2022/01/04 01:13:30;;;;;;;1.60;0.50;;;10.30;92.00;;;;;;5025691;28;19943;-73
2022/01/04 01:15:58;;;;;;;0.23;0.23;;;10.30;92.60;;;;;;5032185;28;20021;-72
2022/01/04 01:18:29;;;;;;;0.90;0.50;;;10.30;93.00;;;;;;5044187;28;20017;-72
2022/01/04 01:20:55;;;;;;;1.45;0.38;;;10.30;94.40;;;;;;5046884;28;20017;-71
2022/01/04 01:23:23;;;;;;;1.70;0.57;;;10.30;94.60;;;;;;5044290;28;20486;-73
2022/01/04 01:25:48;;;;;;;0.63;0.47;;;10.20;94.50;;;;;;5047185;28;20123;-72
2022/01/04 01:28:16;;;;;;;1.47;0.30;;;10.20;94.40;;;;;;5049992;28;20541;-72
2022/01/04 01:30:43;;;;;;;0.82;0.50;;;10.10;93.80;;;;;;5048513;28;20032;-72
2022/01/04 01:33:11;;;;;;;0.82;0.50;;;10.10;92.80;;;;;;5040956;28;20021;-72
2022/01/04 01:35:38;;;;;;;2.22;0.52;;;10.10;92.40;;;;;;5034721;28;20469;-72
2022/01/04 01:38:05;;;;;;;1.70;0.40;;;10.20;92.10;;;;;;5042955;28;20109;-72
2022/01/04 01:40:31;;;;;;;0.70;0.45;;;10.30;92.80;;;;;;5042878;28;20490;-72
2022/01/04 01:42:58;;;;;;;1.30;0.60;;;10.20;92.60;;;;;;5047421;28;20021;-73
2022/01/04 01:45:25;;;;;;;;;;;10.30;92.40;;;;;;5043057;28;20032;-72
2022/01/04 01:47:52;;;;;;;2.05;0.88;;;10.30;92.50;;;;;;5025621;28;19900;-72
2022/01/04 01:50:19;;;;;;;1.15;0.70;;;10.30;92.60;;;;;;5031719;28;20028;-72
2022/01/04 01:52:47;;;;;;;;;;;10.30;92.90;;;;;;5039548;28;20562;-72
2022/01/04 01:55:14;;;;;;;0.68;0.32;;;10.30;92.80;;;;;;5050893;28;19904;-72
2022/01/04 01:57:40;;;;;;;0.80;0.50;;;10.30;92.60;;;;;;5043595;28;20025;-72
2022/01/04 02:00:08;;;;;;;1.07;0.30;;;10.30;92.00;;;;;;5047359;28;20059;-72
2022/01/04 02:02:35;;;;;;;1.30;0.55;;;10.30;91.80;;;;;;5042670;28;20336;-72
2022/01/04 02:05:01;;;;;;;1.73;0.52;;;10.40;91.40;;;;;;5039712;28;20032;-72
2022/01/04 02:07:27;;;;;;;0.50;0.28;;;10.40;91.30;;;;;;5045274;28;20610;-72
2022/01/04 02:10:03;;;;;;;0.20;0.20;;;10.50;91.20;;;;;;5050178;28;20103;-72
2022/01/04 02:12:32;;;;;;;0.43;0.22;;;10.50;91.40;;;;;;5036613;28;20032;-72
2022/01/04 02:14:59;;;;;;;1.98;0.30;;;10.50;91.70;;;;;;5048011;28;20017;-72
2022/01/04 02:17:28;;;;;;;0.80;0.28;;;10.50;91.80;;;;;;5035143;28;20182;-72
2022/01/04 02:19:59;;;;;;;0.43;0.40;;;10.50;92.30;;;;;;5027158;28;20643;-72
2022/01/04 02:22:26;;;;;;;0.63;0.50;;;10.50;92.50;;;;;;5028303;28;20040;-73
2022/01/04 02:24:54;;;;;;;0.80;0.50;;;10.50;92.80;;;;;;5050423;28;20025;-72
2022/01/04 02:27:20;;;;;;;0.45;0.35;;;10.50;92.90;;;;;;5046077;28;20044;-72
2022/01/04 02:29:47;;;;;;;1.52;0.40;;;10.40;93.30;;;;;;5035960;28;20650;-72
2022/01/04 02:32:14;;;;;;;1.10;0.52;;;10.50;93.50;;;;;;5051275;28;20221;-72
2022/01/04 02:34:47;;;;;;;2.05;0.68;;;10.40;93.30;;;;;;5048586;28;20088;-72
2022/01/04 02:37:18;;;;;;;0.75;0.47;;;10.50;93.30;;;;;;5040388;28;20575;-72
2022/01/04 02:39:44;;;;;;;1.92;0.45;;;10.50;93.20;;;;;;5036686;28;20020;-72
2022/01/04 02:42:10;;;;;;;2.03;0.70;;;10.50;93.20;;;;;;5049073;28;20355;-72
2022/01/04 02:44:35;;;;;;;0.67;0.60;;;10.50;93.30;;;;;;5028834;28;20498;-72
2022/01/04 02:47:01;;;;;;;0.90;0.50;;;10.50;93.40;;;;;;5046888;28;20467;-72
2022/01/04 02:49:27;;;;;;;3.97;0.70;;;10.50;93.60;;;;;;5042123;28;20089;-72
2022/01/04 02:51:53;;;;;;;2.47;0.70;;;10.50;93.70;;;;;;5052575;28;20025;-72
2022/01/04 02:54:20;;;;;;;1.08;0.60;;;10.50;93.50;;;;;;5037910;28;20730;-72
2022/01/04 02:56:46;;;;;;;1.55;0.90;;;10.50;93.50;;;;;;5033104;28;20039;-72
2022/01/04 02:59:11;;;;;;;2.00;0.30;;;10.60;93.30;;;;;;5050976;28;20078;-72
2022/01/04 03:01:38;;;;;;;1.30;0.60;;;10.60;92.90;;;;;;5043392;28;20025;-72
2022/01/04 03:04:07;;;;;;;1.45;0.52;;;10.50;93.20;;;;;;5051390;28;20036;-72
2022/01/04 03:06:34;;;;;;;0.82;0.43;;;10.60;92.00;;;;;;5022384;28;20036;-72
2022/01/04 03:09:02;;;;;;;;;;;10.60;92.10;;;;;;5049629;28;20020;-72
2022/01/04 03:11:27;;;;;;;1.40;0.60;;;10.70;92.10;;;;;;5048961;28;19908;-72
2022/01/04 03:13:55;;;;;;;1.70;0.40;;;10.70;91.80;;;;;;5042870;28;20028;-72
2022/01/04 03:16:22;;;;;;;0.73;0.38;;;10.80;91.40;;;;;;5049386;28;20024;-72
2022/01/04 03:19:06;;;;;;;1.27;0.45;;;10.90;91.50;;;;;;5047580;28;20114;-72
2022/01/04 03:21:39;;;;;;;0.65;0.32;;;10.90;91.30;;;;;;5049515;28;20099;-72
2022/01/04 03:24:07;;;;;;;2.05;0.60;;;11.00;91.20;;;;;;5038833;28;20039;-72
2022/01/04 03:26:33;;;;;;;0.30;0.25;;;11.10;91.40;;;;;;5044904;28;20020;-72
2022/01/04 03:29:04;;;;;;;0.50;0.40;;;11.10;91.50;;;;;;5048774;28;20359;-72
2022/01/04 03:31:29;;;;;;;3.92;0.57;;;11.10;91.60;;;;;;5043419;28;20107;-73
2022/01/04 03:33:55;;;;;;;1.63;0.63;;;11.10;91.70;;;;;;5038689;28;20133;-72
2022/01/04 03:36:23;;;;;;;1.60;0.60;;;11.10;91.90;;;;;;5043262;28;20501;-73
2022/01/04 03:38:52;;;;;;;0.52;0.40;;;11.10;91.60;;;;;;5051200;28;20747;-72
2022/01/04 03:41:21;;;;;;;0.85;0.55;;;11.10;91.70;;;;;;5048628;28;20032;-72
2022/01/04 03:43:47;;;;;;;1.55;0.57;;;11.10;91.40;;;;;;5048994;28;20839;-72
2022/01/04 03:46:15;;;;;;;0.40;0.40;;;11.10;91.40;;;;;;5048974;28;20024;-72
2022/01/04 03:48:42;;;;;;;0.60;0.57;;;11.10;91.40;;;;;;5048077;28;20299;-72
2022/01/04 03:51:08;;;;;;;;;;;11.10;91.30;;;;;;5033636;28;20017;-72
2022/01/04 03:53:35;;;;;;;0.30;0.30;;;11.20;91.40;;;;;;5045090;28;20255;-72
2022/01/04 03:56:03;;;;;;;;;;;11.10;91.40;;;;;;5052828;28;20108;-72
2022/01/04 03:58:28;;;;;;;2.20;0.50;;;11.10;91.60;;;;;;5046329;28;19905;-72
2022/01/04 04:00:55;;;;;;;2.73;0.50;;;11.10;91.50;;;;;;5044675;28;20043;-72
2022/01/04 04:03:22;;;;;;;1.10;0.35;;;11.10;91.40;;;;;;5051501;28;20089;-72
2022/01/04 04:05:49;;;;;;;1.25;0.60;;;11.20;91.80;;;;;;5046222;28;20064;-72
2022/01/04 04:08:17;;;;;;;1.00;0.40;;;11.10;91.40;;;;;;5047713;28;20029;-72
2022/01/04 04:10:43;;;;;;;2.67;0.50;;;11.10;91.30;;;;;;5042859;28;20021;-72
2022/01/04 04:13:08;;;;;;;0.38;0.35;;;11.10;91.30;;;;;;5048929;28;20032;-72
2022/01/04 04:15:35;;;;;;;0.40;0.40;;;11.10;91.50;;;;;;5041981;28;20067;-72
2022/01/04 04:18:04;;;;;;;;;;;11.10;91.60;;;;;;5024943;28;20012;-71
2022/01/04 04:20:29;;;;;;;;;;;11.10;91.40;;;;;;5045240;28;19909;-72
2022/01/04 04:22:56;;;;;;;;;;;11.10;91.60;;;;;;5026317;28;19971;-72
2022/01/04 04:25:21;;;;;;;;;;;11.10;91.60;;;;;;5049278;28;19905;-73
2022/01/04 04:27:47;;;;;;;;;;;11.10;91.60;;;;;;5045831;28;19915;-72
2022/01/04 04:30:13;;;;;;;;;;;11.10;91.50;;;;;;5048291;28;19912;-72
2022/01/04 04:32:38;;;;;;;;;;;11.20;91.40;;;;;;5040170;28;19935;-71
2022/01/04 04:35:04;;;;;;;;;;;11.20;91.80;;;;;;5023620;28;19920;-72
2022/01/04 04:37:30;;;;;;;;;;;11.20;91.80;;;;;;5045784;28;19909;-72
2022/01/04 04:39:55;;;;;;;;;;;11.20;91.70;;;;;;5022678;28;19908;-72
2022/01/04 04:42:22;;;;;;;;;;;11.20;91.60;;;;;;5050388;28;19994;-73
2022/01/04 04:44:49;;;;;;;;;;;11.20;91.90;;;;;;5048219;28;19952;-72
2022/01/04 04:47:16;;;;;;;;;;;11.20;92.30;;;;;;5046626;28;20751;-72
2022/01/04 04:49:41;;;;;;;;;;;11.10;91.80;;;;;;5045656;28;20438;-72
2022/01/04 04:52:08;;;;;;;;;;;11.00;92.10;;;;;;5051289;28;20673;-72
2022/01/04 04:54:33;;;;;;;;;;;10.90;92.30;;;;;;5044484;28;20568;-72
2022/01/04 04:57:00;;;;;;;;;;;10.80;92.40;;;;;;5026462;28;19943;-72
2022/01/04 04:59:26;;;;;;;;;;;10.70;92.70;;;;;;5042950;28;19913;-72
2022/01/04 05:01:52;;;;;;;;;;;10.70;92.90;;;;;;5026903;28;19912;-72
2022/01/04 05:04:18;;;;;;;;;;;10.60;93.10;;;;;;5043045;28;19913;-72
2022/01/04 05:06:44;;;;;;;;;;;10.50;93.60;;;;;;5045781;28;19934;-72
2022/01/04 05:09:10;;;;;;;;;;;10.40;93.60;;;;;;5044173;28;19940;-72
2022/01/04 05:11:38;;;;;;;;;;;10.30;94.10;;;;;;5046385;28;19987;-72
2022/01/04 05:14:03;;;;;;;;;;;10.20;94.10;;;;;;5050156;28;19957;-72
2022/01/04 05:16:30;;;;;;;;;;;10.10;94.30;;;;;;5040788;28;19905;-72
2022/01/04 05:18:56;;;;;;;;;;;10.10;94.40;;;;;;5051925;28;19991;-72
2022/01/04 05:21:21;;;;;;;;;;;10.00;94.30;;;;;;5044575;28;19987;-72
2022/01/04 05:23:47;;;;;;;;;;;10.00;94.40;;;;;;5044795;28;19913;-71
2022/01/04 05:26:12;;;;;;;;;;;9.90;94.80;;;;;;5049583;28;19908;-71
2022/01/04 05:28:41;;;;;;;;;;;9.90;94.70;;;;;;5045737;28;20342;-72
2022/01/04 05:31:07;;;;;;;;;;;9.90;94.40;;;;;;5051795;28;20373;-72
2022/01/04 05:33:33;;;;;;;;;;;9.90;94.60;;;;;;5044944;28;19912;-72
2022/01/04 05:36:00;;;;;;;;;;;9.90;94.30;;;;;;5054468;28;19904;-72
2022/01/04 05:38:25;;;;;;;;;;;9.90;95.00;;;;;;5028740;28;20297;-72
2022/01/04 05:40:52;;;;;;;;;;;9.90;95.10;;;;;;5054399;28;19905;-72
2022/01/04 05:43:18;;;;;;;;;;;9.90;95.30;;;;;;5049383;28;19919;-73
2022/01/04 05:45:46;;;;;;;;;;;9.90;95.00;;;;;;5052799;28;20073;-72
2022/01/04 05:48:12;;;;;;;;;;;9.90;95.60;;;;;;5054553;28;20433;-72
2022/01/04 05:50:38;;;;;;;;;;;9.80;95.60;;;;;;5048882;28;19995;-72
2022/01/04 05:53:05;;;;;;;;;;;9.80;95.60;;;;;;5048316;28;19919;-72
2022/01/04 05:55:31;;;;;;;;;;;9.80;95.30;;;;;;5046650;28;19904;-72
2022/01/04 05:57:56;;;;;;;;;;;9.80;94.80;;;;;;5052940;28;19960;-72
2022/01/04 06:00:22;;;;;;;;;;;9.70;94.50;;;;;;5063969;28;19936;-72
2022/01/04 06:02:49;;;;;;;;;;;9.70;94.10;;;;;;5052055;28;19912;-71
2022/01/04 06:05:16;;;;;;;;;;;9.70;93.70;;;;;;5059637;28;19912;-72
2022/01/04 06:07:43;;;;;;;;;;;9.70;93.40;;;;;;5047074;28;19904;-72
2022/01/04 06:10:12;;;;;;;;;;;9.80;94.70;;;;;;5067985;28;19908;-72
2022/01/04 06:15:05;;;;;;;;;;;9.80;93.80;;;;;;5052956;28;19951;-72
2022/01/04 06:17:33;;;;;;;;;;;9.80;94.70;;;;;;5047395;28;19913;-73
2022/01/04 06:19:59;;;;;;;;;;;9.80;94.70;;;;;;5049988;28;19931;-72
2022/01/04 06:22:26;;;;;;;;;;;9.80;95.10;;;;;;5048691;28;20270;-72
2022/01/04 06:24:53;;;;;;;;;;;9.70;95.30;;;;;;5054305;28;19920;-72
2022/01/04 06:27:20;;;;;;;;;;;9.70;96.30;;;;;;5052375;28;20336;-71
2022/01/04 06:29:46;;;;;;;;;;;9.70;96.60;;;;;;5050188;28;19991;-72
2022/01/04 06:32:11;;;;;;;;;;;9.70;97.80;;;;;;5063994;28;19999;-72
2022/01/04 06:34:38;;;;;;;;;;;9.70;96.70;;;;;;5051267;28;19904;-72
2022/01/04 06:37:03;;;;;;;;;;;9.60;96.80;;;;;;5046080;28;20338;-72
2022/01/04 06:39:30;;;;;;;;;;;9.50;97.30;;;;;;5037438;28;19905;-73
2022/01/04 06:41:56;;;;;;;;;;;9.40;97.70;;;;;;5050493;28;19909;-72
2022/01/04 06:44:24;;;;;;;;;;;9.40;98.00;;;;;;5054342;28;19912;-72
2022/01/04 06:46:51;;;;;;;;;;;9.30;98.30;;;;;;5048540;28;19920;-72
2022/01/04 06:49:17;;;;;;;;;;;9.20;99.10;;;;;;5050401;28;19995;-72
2022/01/04 06:51:45;;;;;;;;;;;9.20;98.60;;;;;;5045234;28;19909;-72
2022/01/04 06:54:11;;;;;;;;;;;9.20;99.60;;;;;;5050344;28;20327;-72
2022/01/04 06:56:37;;;;;;;;;;;9.20;99.90;;;;;;5039572;28;19905;-71
2022/01/04 06:59:04;;;;;;;;;;;9.30;99.90;;;;;;5050685;28;19962;-72
2022/01/04 07:01:30;;;;;;;;;;;9.20;99.80;;;;;;5046404;28;19912;-72
2022/01/04 07:03:56;;;;;;;;;;;9.30;99.90;;;;;;5032772;28;19905;-72
2022/01/04 07:06:22;;;;;;;;;;;9.30;99.90;;;;;;5028000;28;19954;-73
2022/01/04 07:08:47;;;;;;;;;;;9.10;99.90;;;;;;5044134;28;19912;-71
2022/01/04 07:11:14;;;;;;;;;;;9.10;99.90;;;;;;5027379;28;20320;-71
2022/01/04 07:13:43;;;;;;;;;;;9.00;99.90;;;;;;5044894;28;19999;-71
2022/01/04 07:16:08;;;;;;;;;;;9.00;99.90;;;;;;5054807;28;19977;-72
2022/01/04 07:18:35;;;;;;;;;;;8.90;99.90;;;;;;5047675;28;20385;-72
2022/01/04 07:21:00;;;;;;;;;;;9.00;99.90;;;;;;5049669;28;20401;-73
2022/01/04 07:23:27;;;;;;;;;;;8.90;99.90;;;;;;5046500;28;19905;-71
2022/01/04 07:25:54;;;;;;;;;;;8.90;99.90;;;;;;5049033;28;20003;-72
2022/01/04 07:28:20;;;;;;;;;;;8.90;99.90;;;;;;5048826;28;19916;-72
2022/01/04 07:30:46;;;;;;;;;;;8.80;99.90;;;;;;5022955;28;19909;-72
2022/01/04 07:33:11;;;;;;;;;;;8.70;99.90;;;;;;5052295;28;19955;-72
2022/01/04 07:35:38;;;;;;;;;;;8.70;99.90;;;;;;5050155;28;19987;-72
2022/01/04 07:38:05;;;;;;;;;;;8.70;99.90;;;;;;5023788;28;19904;-72
2022/01/04 07:40:30;;;;;;;;;;;8.80;99.90;;;;;;5048419;28;19908;-72
2022/01/04 07:43:00;;;;;;;;;;;8.90;99.90;;;;;;5023292;28;19915;-73
2022/01/04 07:45:29;;;;;;;;;;;8.90;99.90;;;;;;5041511;28;20612;-71
2022/01/04 07:47:55;;;;;;;;;;;8.80;99.90;;;;;;5046483;28;19905;-72
2022/01/04 07:50:23;;;;;;;;;;;8.80;99.90;;;;;;5042650;28;19923;-71
2022/01/04 07:52:49;;;;;;;;;;;8.70;99.90;;;;;;5052224;28;19908;-72
2022/01/04 07:55:15;;;;;;;;;;;8.60;99.90;;;;;;5044630;28;19915;-72
2022/01/04 07:57:42;;;;;;;;;;;8.70;99.90;;;;;;5025866;28;19904;-72
2022/01/04 08:00:08;;;;;;;;;;;8.70;99.90;;;;;;5053093;28;20544;-72
2022/01/04 08:02:37;;;;;;;;;;;8.70;99.90;;;;;;5046409;28;19923;-72
2022/01/04 08:05:03;;;;;;;;;;;8.70;99.90;;;;;;5054265;28;20008;-72
2022/01/04 08:07:28;;;;;;;;;;;8.70;99.90;;;;;;5049833;28;19999;-72
2022/01/04 08:09:56;;;;;;;;;;;8.70;99.90;;;;;;5043638;28;19932;-72
2022/01/04 08:12:22;;;;;;;;;;;8.70;99.90;;;;;;5043264;28;19919;-71
2022/01/04 08:14:48;;;;;;;;;;;8.80;99.90;;;;;;5048022;28;19987;-71
2022/01/04 08:17:14;;;;;;;;;;;8.80;99.90;;;;;;5042475;28;20497;-72
2022/01/04 08:19:42;;;;;;;;;;;8.90;99.90;;;;;;5049326;28;20166;-72
2022/01/04 08:22:10;;;;;;;;;;;8.90;99.90;;;;;;5045741;28;19908;-71
2022/01/04 08:24:35;;;;;;;;;;;8.90;99.90;;;;;;5049757;28;19935;-73
2022/01/04 08:27:01;;;;;;;;;;;9.00;99.90;;;;;;5044133;28;19905;-72
2022/01/04 08:29:27;;;;;;;;;;;9.10;99.90;;;;;;5051687;28;19951;-72
2022/01/04 08:31:53;;;;;;;;;;;9.10;99.90;;;;;;5039079;28;19916;-71
2022/01/04 08:34:19;;;;;;;;;;;9.10;99.90;;;;;;5050720;28;19908;-72
2022/01/04 08:36:47;;;;;;;;;;;9.20;99.90;;;;;;5043794;28;19915;-72
2022/01/04 08:39:14;;;;;;;;;;;9.20;99.90;;;;;;5052599;28;19904;-72
2022/01/04 08:41:45;;;;;;;;;;;9.20;99.90;;;;;;5059226;28;20400;-72
2022/01/04 08:44:12;;;;;;;;;;;9.30;99.90;;;;;;5047544;28;19983;-72
2022/01/04 08:46:38;;;;;;;;;;;9.30;99.90;;;;;;5044959;28;19944;-72
2022/01/04 08:49:04;;;;;;;;;;;9.40;99.90;;;;;;5047641;28;19954;-72
2022/01/04 08:51:29;;;;;;;;;;;9.40;99.90;;;;;;5051131;28;19999;-73
2022/01/04 08:53:56;;;;;;;;;;;9.40;99.90;;;;;;5048049;28;19978;-72
2022/01/04 08:56:22;;;;;;;;;;;9.40;99.90;;;;;;5053385;28;19908;-72
2022/01/04 08:58:48;;;;;;;;;;;9.50;99.90;;;;;;5037258;28;19911;-71
2022/01/04 09:01:14;;;;;;;;;;;9.60;99.90;;;;;;5025159;28;20297;-72
2022/01/04 09:03:42;;;;;;;;;;;9.60;99.90;;;;;;5040915;28;19904;-72
2022/01/04 09:06:09;;;;;;;;;;;9.50;99.90;;;;;;5044594;28;19905;-72
2022/01/04 09:08:36;;;;;;;;;;;9.50;99.90;;;;;;5042935;28;19909;-72
2022/01/04 09:11:03;;;;;;;;;;;9.50;99.90;;;;;;5050747;28;19904;-72
2022/01/04 09:13:37;;;;;;;;;;;9.50;99.90;;;;;;5046580;28;19951;-72
2022/01/04 09:19:02;;;;;;;;;;;9.30;99.90;;;;;;5046327;28;19911;-73
2022/01/04 09:21:24;;;;;;;;;;;9.30;99.90;;;;;;5039532;28;20002;-72
2022/01/04 09:23:50;;;;;;;;;;;9.30;99.90;;;;;;5016975;28;19912;-76
2022/01/04 09:26:16;;;;;;;;;;;9.40;99.90;;;;;;5050535;28;20345;-72
2022/01/04 09:28:42;;;;;;;;;;;9.30;99.90;;;;;;5045908;28;20609;-72
2022/01/04 09:31:12;;;;;;;;;;;9.20;99.90;;;;;;5051554;28;19987;-72
2022/01/04 09:33:39;;;;;;;;;;;9.20;99.90;;;;;;5045780;28;19915;-72
2022/01/04 09:36:04;;;;;;;;;;;9.20;99.90;;;;;;5023386;28;19951;-73
2022/01/04 09:38:30;;;;;;;;;;;9.30;99.90;;;;;;5042669;28;20387;-72
2022/01/04 09:40:59;;;;;;;;;;;9.40;99.90;;;;;;5047350;28;19909;-72
2022/01/04 09:43:25;;;;;;;;;;;9.40;99.90;;;;;;5043157;28;19936;-72
2022/01/04 09:45:52;;;;;;;;;;;9.50;99.90;;;;;;5045786;28;20630;-72
2022/01/04 09:48:19;;;;;;;;;;;9.60;99.90;;;;;;5049386;28;20000;-72
2022/01/04 09:50:45;;;;;;;;;;;9.60;99.90;;;;;;5044604;28;19921;-72
2022/01/04 09:53:17;;;;;;;;;;;9.70;99.90;;;;;;5047859;28;19917;-72
2022/01/04 09:55:44;;;;;;;;;;;9.70;99.90;;;;;;5019724;28;19951;-72
2022/01/04 09:58:10;;;;;;;;;;;9.70;99.90;;;;;;5047656;28;19943;-72
2022/01/04 10:00:36;;;;;;;;;;;9.80;99.90;;;;;;5057643;28;19916;-72
2022/01/04 10:03:10;;;;;;;;;;;9.70;99.90;;;;;;5048873;28;19954;-72
2022/01/04 10:05:36;;;;;;;;;;;9.70;99.90;;;;;;5044372;28;19904;-72
2022/01/04 10:08:05;;;;;;;;;;;9.70;99.90;;;;;;5064344;28;19951;-72
2022/01/04 10:10:32;;;;;;;;;;;9.80;99.90;;;;;;5043751;28;20277;-72
2022/01/04 10:13:01;;;;;;;;;;;9.80;99.90;;;;;;5052486;28;19999;-72
2022/01/04 10:15:47;;;;;;;;;;;9.90;99.90;;;;;;5053248;28;19912;-72
2022/01/04 10:18:12;;;;;;;;;;;9.90;99.90;;;;;;5049071;28;19919;-72
2022/01/04 10:20:51;;;;;;;;;;;9.80;99.90;;;;;;5043981;28;19909;-72
2022/01/04 10:23:23;;;;;;;;;;;9.80;99.90;;;;;;5054359;28;20003;-72
2022/01/04 10:25:50;;;;;;;;;;;10.00;99.90;;;;;;5042521;28;19909;-72
2022/01/04 10:28:29;;;;;;;;;;;10.10;99.90;;;;;;5048784;28;21343;-72
2022/01/04 10:30:58;;;;;;;;;;;10.20;99.20;;;;;;5049917;28;19932;-72
2022/01/04 10:33:24;;;;;;;;;;;10.40;98.40;;;;;;5048299;28;19919;-72
2022/01/04 10:35:51;;;;;;;;;;;10.60;97.20;;;;;;5045658;28;20025;-72
2022/01/04 10:38:19;;;;;;;;;;;10.40;96.50;;;;;;5045082;28;19920;-73
2022/01/04 10:40:48;;;;;;;;;;;10.20;97.20;;;;;;5042487;28;19995;-72
2022/01/04 10:43:15;;;;;;;;;;;10.20;98.00;;;;;;5048881;28;19959;-72
2022/01/04 10:45:44;;;;;;;;;;;10.10;98.20;;;;;;5046289;28;19911;-72
2022/01/04 10:48:15;;;;;;;;;;;10.00;98.10;;;;;;5052409;28;20420;-72
2022/01/04 10:50:41;;;;;;;;;;;9.90;97.90;;;;;;5041229;28;19916;-72
2022/01/04 10:53:13;;;;;;;;;;;9.90;98.50;;;;;;5051926;28;19909;-72
2022/01/04 10:55:39;;;;;;;;;;;9.80;99.00;;;;;;5043885;28;19955;-72
2022/01/04 10:58:05;;;;;;;;;;;9.70;99.70;;;;;;5049686;28;19912;-73
2022/01/04 11:00:31;;;;;;;;;;;9.60;99.90;;;;;;5049226;28;19916;-72
2022/01/04 11:02:58;;;;;;;;;;;9.50;99.90;;;;;;5043141;28;20362;-72
2022/01/04 11:05:24;;;;;;;;;;;9.40;99.90;;;;;;5045689;28;20488;-72
2022/01/04 11:07:57;;;;;;;;;;;9.40;99.90;;;;;;5022717;28;19999;-72
2022/01/04 11:10:24;;;;;;;;;;;9.30;99.90;;;;;;5054584;28;19911;-72
2022/01/04 11:12:52;;;;;;;;;;;9.40;99.90;;;;;;5027460;28;19908;-71
2022/01/04 11:15:18;;;;;;;;;;;9.50;99.90;;;;;;5056037;28;20554;-72
2022/01/04 11:17:44;;;;;;;;;;;9.50;99.90;;;;;;5048643;28;20004;-72
2022/01/04 11:20:10;;;;;;;;;;;9.70;99.90;;;;;;5050273;28;19958;-72
2022/01/04 11:22:40;;;;;;;;;;;9.80;99.90;;;;;;5044861;28;20400;-72
2022/01/04 11:25:06;;;;;;;;;;;9.70;99.90;;;;;;5051331;28;20574;-72
2022/01/04 11:27:34;;;;;;;;;;;9.60;99.90;;;;;;5039976;28;19908;-72
2022/01/04 11:30:02;;;;;;;;;;;9.70;99.90;;;;;;5052420;28;19908;-74
2022/01/04 11:32:29;;;;;;;;;;;9.50;99.90;;;;;;5026172;28;20391;-71
2022/01/04 11:35:00;;;;;;;;;;;9.60;99.90;;;;;;5025327;28;19915;-71
2022/01/04 11:37:28;;;;;;;;;;;9.60;99.90;;;;;;5040026;28;19919;-72
2022/01/04 11:39:54;;;;;;;;;;;9.70;99.90;;;;;;5045487;28;19966;-72
2022/01/04 11:42:34;;;;;;;;;;;9.70;99.90;;;;;;5023552;28;19998;-72
2022/01/04 11:45:00;;;;;;;;;;;9.70;99.90;;;;;;5051391;28;19904;-72
2022/01/04 11:47:27;;;;;;;;;;;9.80;99.90;;;;;;5026787;28;19927;-72
2022/01/04 11:50:04;;;;;;;;;;;9.80;99.90;;;;;;5047555;28;19959;-72
2022/01/04 11:52:45;;;;;;;;;;;9.80;99.90;;;;;;5046842;28;19912;-71
2022/01/04 11:55:15;;;;;;;;;;;9.80;99.90;;;;;;5046565;28;19920;-71
2022/01/04 11:57:42;;;;;;;;;;;9.80;99.90;;;;;;5021723;28;20332;-72
2022/01/04 12:00:08;;;;;;;;;;;9.80;99.90;;;;;;5036173;28;20436;-72
2022/01/04 12:02:39;;;;;;;;;;;9.70;99.90;;;;;;5045271;28;19954;-72
2022/01/04 12:05:24;;;;;;;;;;;9.60;99.90;;;;;;5045369;28;20510;-72
2022/01/04 12:07:55;;;;;;;;;;;9.40;99.90;;;;;;5047333;28;20039;-72
2022/01/04 12:10:21;;;;;;;;;;;9.40;99.90;;;;;;5052329;28;19991;-73
2022/01/04 12:12:57;;;;;;;;;;;9.30;99.90;;;;;;5046404;28;19916;-72
2022/01/04 12:15:35;;;;;;;;;;;9.30;99.90;;;;;;5052020;28;20250;-73
2022/01/04 12:18:01;;;;;;;;;;;9.20;99.90;;;;;;5041802;28;19966;-71
2022/01/04 12:20:43;;;;;;;;;;;9.10;99.90;;;;;;5046267;28;19908;-72
2022/01/04 12:23:30;;;;;;;;;;;9.00;99.90;;;;;;5064209;28;19909;-73
2022/01/04 12:26:19;;;;;;;;;;;9.00;99.90;;;;;;5045979;28;20034;-72
2022/01/04 12:28:54;;;;;;;;;;;9.00;99.90;;;;;;5051194;28;19913;-73
2022/01/04 12:31:22;;;;;;;;;;;9.00;99.90;;;;;;5048463;28;20059;-72
2022/01/04 12:33:49;;;;;;;;;;;9.10;99.90;;;;;;5036198;28;19974;-72
2022/01/04 12:36:34;;;;;;;;;;;9.10;99.90;;;;;;5061334;28;19904;-72
2022/01/04 12:39:04;;;;;;;;;;;9.00;99.90;;;;;;5060099;28;19987;-72
2022/01/04 12:41:30;;;;;;;;;;;9.10;99.90;;;;;;5042907;28;19928;-72
2022/01/04 12:43:58;;;;;;;;;;;9.20;99.90;;;;;;5043953;28;20364;-71
2022/01/04 12:46:32;;;;;;;;;;;9.20;99.90;;;;;;5045416;28;19934;-72
2022/01/04 12:49:02;;;;;;;;;;;9.30;99.90;;;;;;5046546;28;19909;-72
2022/01/04 12:51:30;;;;;;;;;;;9.40;99.90;;;;;;5047985;28;20323;-72
2022/01/04 12:53:59;;;;;;;;;;;9.50;99.90;;;;;;5041439;28;19920;-72
2022/01/04 12:56:25;;;;;;;;;;;9.50;99.90;;;;;;5057477;28;19908;-72
2022/01/04 12:58:51;;;;;;;;;;;9.60;99.90;;;;;;5035882;28;19905;-72
2022/01/04 13:01:27;;;;;;;;;;;9.60;99.90;;;;;;5043972;28;20372;-72
2022/01/04 13:03:53;;;;;;;;;;;9.60;99.90;;;;;;5041876;28;20397;-72
2022/01/04 13:06:21;;;;;;;;;;;9.70;99.90;;;;;;5022895;28;19904;-72
2022/01/04 13:08:51;;;;;;;;;;;9.70;99.90;;;;;;5038843;28;19919;-72
2022/01/04 13:11:17;;;;;;;;;;;9.80;99.90;;;;;;5048187;28;20309;-71
2022/01/04 13:13:42;;;;;;;;;;;9.80;99.90;;;;;;5040707;28;19913;-72
2022/01/04 13:16:21;;;;;;;;;;;9.80;99.90;;;;;;5045811;28;19912;-71
2022/01/04 13:18:48;;;;;;;;;;;9.70;99.90;;;;;;5042444;28;20346;-72
2022/01/04 13:21:14;;;;;;;;;;;9.70;99.90;;;;;;5044773;28;19936;-72
2022/01/04 13:23:40;;;;;;;;;;;9.70;99.90;;;;;;5046068;28;19939;-72
2022/01/04 13:26:06;;;;;;;;;;;9.70;99.90;;;;;;5044139;28;19911;-72
2022/01/04 13:28:33;;;;;;;;;;;9.70;99.90;;;;;;5020393;28;19905;-72
2022/01/04 13:30:59;;;;;;;;;;;9.70;99.90;;;;;;5045447;28;19922;-72
2022/01/04 13:33:25;;;;;;;;;;;9.70;99.90;;;;;;5047302;28;20574;-72
2022/01/04 13:35:55;;;;;;;;;;;9.60;99.90;;;;;;5040359;28;19905;-72
2022/01/04 13:38:26;;;;;;;;;;;9.70;99.90;;;;;;5045686;28;19901;-71
2022/01/04 13:40:52;;;;;;;;;;;9.70;99.90;;;;;;5037355;28;19912;-72
2022/01/04 13:43:29;;;;;;;;;;;9.70;99.90;;;;;;5039497;28;19927;-72
2022/01/04 13:45:58;;;;;;;;;;;9.70;99.90;;;;;;5041246;28;19905;-72
2022/01/04 13:48:25;;;;;;;;;;;9.80;99.90;;;;;;5046369;28;20303;-72
2022/01/04 13:50:51;;;;;;;;;;;9.80;99.90;;;;;;5048464;28;19936;-72
2022/01/04 13:53:18;;;;;;;;;;;9.90;99.90;;;;;;5052053;28;19971;-72
2022/01/04 13:55:48;;;;;;;;;;;10.00;99.90;;;;;;5044401;28;19940;-72
2022/01/04 13:58:29;;;;;;;;;;;10.00;99.90;;;;;;5045434;28;19904;-72
2022/01/04 14:00:54;;;;;;;;;;;10.00;99.90;;;;;;5042993;28;19917;-72
2022/01/04 14:03:28;;;;;;;;;;;10.10;99.90;;;;;;5048538;28;19905;-72
2022/01/04 14:05:54;;;;;;;;;;;10.00;99.90;;;;;;5046995;28;20381;-72
2022/01/04 14:08:39;;;;;;;;;;;10.00;99.90;;;;;;5026969;28;19909;-73